sensor_id;sensor_type;location;lat;lon;timestamp;temperature;humidity
429;DHT22;201;48.758;9.290;2023-05-14T00:00:40;11.50;15.80
429;DHT22;201;48.758;9.290;2023-05-14T00:03:05;11.60;15.80
429;DHT22;201;48.758;9.290;2023-05-14T00:05:31;11.70;15.70
429;DHT22;201;48.758;9.290;2023-05-14T00:07:57;11.60;15.30
429;DHT22;201;48.758;9.290;2023-05-14T00:10:22;11.70;15.50
429;DHT22;201;48.758;9.290;2023-05-14T00:12:49;11.70;15.40
429;DHT22;201;48.758;9.290;2023-05-14T00:15:15;11.80;15.40
429;DHT22;201;48.758;9.290;2023-05-14T00:17:40;11.70;15.00
429;DHT22;201;48.758;9.290;2023-05-14T00:20:07;11.70;14.80
429;DHT22;201;48.758;9.290;2023-05-14T00:22:33;11.60;15.00
429;DHT22;201;48.758;9.290;2023-05-14T00:24:59;11.70;15.10
429;DHT22;201;48.758;9.290;2023-05-14T00:27:25;11.60;15.00
429;DHT22;201;48.758;9.290;2023-05-14T00:29:50;11.70;15.10
429;DHT22;201;48.758;9.290;2023-05-14T00:32:16;11.70;15.20
429;DHT22;201;48.758;9.290;2023-05-14T00:34:41;11.70;15.10
429;DHT22;201;48.758;9.290;2023-05-14T00:37:07;11.70;15.00
429;DHT22;201;48.758;9.290;2023-05-14T00:39:33;11.70;14.80
429;DHT22;201;48.758;9.290;2023-05-14T00:41:58;11.70;14.70
429;DHT22;201;48.758;9.290;2023-05-14T00:44:24;11.60;14.80
429;DHT22;201;48.758;9.290;2023-05-14T00:46:49;11.50;14.80
429;DHT22;201;48.758;9.290;2023-05-14T00:49:15;11.50;14.80
429;DHT22;201;48.758;9.290;2023-05-14T00:51:42;11.40;14.70
429;DHT22;201;48.758;9.290;2023-05-14T00:54:12;11.30;14.80
429;DHT22;201;48.758;9.290;2023-05-14T00:56:38;11.20;15.10
429;DHT22;201;48.758;9.290;2023-05-14T00:59:04;11.10;15.70
429;DHT22;201;48.758;9.290;2023-05-14T01:01:29;11.10;15.80
429;DHT22;201;48.758;9.290;2023-05-14T01:03:55;10.90;15.80
429;DHT22;201;48.758;9.290;2023-05-14T01:06:55;10.80;16.10
429;DHT22;201;48.758;9.290;2023-05-14T01:12:10;10.50;17.10
429;DHT22;201;48.758;9.290;2023-05-14T01:15:01;10.50;17.70
429;DHT22;201;48.758;9.290;2023-05-14T01:17:28;10.50;18.10
429;DHT22;201;48.758;9.290;2023-05-14T01:19:56;10.50;18.40
429;DHT22;201;48.758;9.290;2023-05-14T01:22:22;10.50;18.40
429;DHT22;201;48.758;9.290;2023-05-14T01:24:47;10.50;18.40
429;DHT22;201;48.758;9.290;2023-05-14T01:27:28;10.50;18.40
429;DHT22;201;48.758;9.290;2023-05-14T01:30:01;10.50;18.40
429;DHT22;201;48.758;9.290;2023-05-14T01:32:28;10.50;18.40
429;DHT22;201;48.758;9.290;2023-05-14T01:34:57;10.50;18.40
429;DHT22;201;48.758;9.290;2023-05-14T01:37:25;10.50;18.40
429;DHT22;201;48.758;9.290;2023-05-14T01:39:52;10.50;18.40
429;DHT22;201;48.758;9.290;2023-05-14T01:42:19;10.50;19.00
429;DHT22;201;48.758;9.290;2023-05-14T01:44:45;10.40;18.30
429;DHT22;201;48.758;9.290;2023-05-14T01:47:10;10.40;18.30
429;DHT22;201;48.758;9.290;2023-05-14T01:49:36;10.50;18.40
429;DHT22;201;48.758;9.290;2023-05-14T01:52:01;10.50;18.40
429;DHT22;201;48.758;9.290;2023-05-14T01:54:27;10.60;18.50
429;DHT22;201;48.758;9.290;2023-05-14T01:56:52;10.50;17.90
429;DHT22;201;48.758;9.290;2023-05-14T01:59:18;10.50;17.80
429;DHT22;201;48.758;9.290;2023-05-14T02:01:43;10.40;17.50
429;DHT22;201;48.758;9.290;2023-05-14T02:04:09;10.40;17.60
429;DHT22;201;48.758;9.290;2023-05-14T02:06:34;10.40;17.70
429;DHT22;201;48.758;9.290;2023-05-14T02:09:00;10.40;17.80
429;DHT22;201;48.758;9.290;2023-05-14T02:11:26;10.40;17.40
429;DHT22;201;48.758;9.290;2023-05-14T02:13:51;10.40;17.30
429;DHT22;201;48.758;9.290;2023-05-14T02:16:17;10.40;17.40
429;DHT22;201;48.758;9.290;2023-05-14T02:18:43;10.40;17.40
429;DHT22;201;48.758;9.290;2023-05-14T02:21:08;10.40;17.70
429;DHT22;201;48.758;9.290;2023-05-14T02:23:34;10.40;17.60
429;DHT22;201;48.758;9.290;2023-05-14T02:26:00;10.50;17.70
429;DHT22;201;48.758;9.290;2023-05-14T02:28:25;10.50;17.60
429;DHT22;201;48.758;9.290;2023-05-14T02:30:51;10.60;17.70
429;DHT22;201;48.758;9.290;2023-05-14T02:33:16;10.60;17.70
429;DHT22;201;48.758;9.290;2023-05-14T02:35:42;10.70;17.50
429;DHT22;201;48.758;9.290;2023-05-14T02:38:07;10.70;17.00
429;DHT22;201;48.758;9.290;2023-05-14T02:40:33;10.80;16.80
429;DHT22;201;48.758;9.290;2023-05-14T02:43:00;10.70;16.70
429;DHT22;201;48.758;9.290;2023-05-14T02:45:26;10.80;16.60
429;DHT22;201;48.758;9.290;2023-05-14T02:47:51;10.80;16.30
429;DHT22;201;48.758;9.290;2023-05-14T02:50:17;10.80;16.10
429;DHT22;201;48.758;9.290;2023-05-14T02:52:42;10.80;15.90
429;DHT22;201;48.758;9.290;2023-05-14T02:55:08;10.90;16.20
429;DHT22;201;48.758;9.290;2023-05-14T02:57:34;11.00;16.30
429;DHT22;201;48.758;9.290;2023-05-14T02:59:59;11.10;16.30
429;DHT22;201;48.758;9.290;2023-05-14T03:02:25;11.10;15.70
429;DHT22;201;48.758;9.290;2023-05-14T03:04:50;11.20;15.60
429;DHT22;201;48.758;9.290;2023-05-14T03:07:16;11.00;15.30
429;DHT22;201;48.758;9.290;2023-05-14T03:09:41;11.00;15.70
429;DHT22;201;48.758;9.290;2023-05-14T03:12:07;11.10;15.80
429;DHT22;201;48.758;9.290;2023-05-14T03:14:32;11.20;15.40
429;DHT22;201;48.758;9.290;2023-05-14T03:16:58;11.20;15.50
429;DHT22;201;48.758;9.290;2023-05-14T03:19:23;11.20;15.20
429;DHT22;201;48.758;9.290;2023-05-14T03:21:49;11.30;15.00
429;DHT22;201;48.758;9.290;2023-05-14T03:24:14;11.30;14.80
429;DHT22;201;48.758;9.290;2023-05-14T03:26:40;11.30;14.30
429;DHT22;201;48.758;9.290;2023-05-14T03:29:05;11.40;14.00
429;DHT22;201;48.758;9.290;2023-05-14T03:31:31;11.30;13.80
429;DHT22;201;48.758;9.290;2023-05-14T03:33:56;11.30;14.00
429;DHT22;201;48.758;9.290;2023-05-14T03:36:22;11.40;14.10
429;DHT22;201;48.758;9.290;2023-05-14T03:38:47;11.30;14.40
429;DHT22;201;48.758;9.290;2023-05-14T03:41:13;11.40;14.50
429;DHT22;201;48.758;9.290;2023-05-14T03:43:39;11.40;14.40
429;DHT22;201;48.758;9.290;2023-05-14T03:46:04;11.40;14.50
429;DHT22;201;48.758;9.290;2023-05-14T03:48:30;11.40;14.50
429;DHT22;201;48.758;9.290;2023-05-14T03:50:55;11.40;14.40
429;DHT22;201;48.758;9.290;2023-05-14T03:53:21;11.40;14.50
429;DHT22;201;48.758;9.290;2023-05-14T03:55:46;11.40;14.50
429;DHT22;201;48.758;9.290;2023-05-14T03:58:12;11.40;14.80
429;DHT22;201;48.758;9.290;2023-05-14T04:00:42;11.40;14.70
429;DHT22;201;48.758;9.290;2023-05-14T04:03:07;11.40;14.80
429;DHT22;201;48.758;9.290;2023-05-14T04:05:34;11.40;14.50
429;DHT22;201;48.758;9.290;2023-05-14T04:08:00;11.50;14.40
429;DHT22;201;48.758;9.290;2023-05-14T04:10:25;11.50;14.40
429;DHT22;201;48.758;9.290;2023-05-14T04:12:51;11.50;14.20
429;DHT22;201;48.758;9.290;2023-05-14T04:15:16;11.50;14.30
429;DHT22;201;48.758;9.290;2023-05-14T04:17:42;11.50;14.80
429;DHT22;201;48.758;9.290;2023-05-14T04:20:08;11.50;14.10
429;DHT22;201;48.758;9.290;2023-05-14T04:22:33;11.60;13.70
429;DHT22;201;48.758;9.290;2023-05-14T04:24:59;11.50;13.70
429;DHT22;201;48.758;9.290;2023-05-14T04:27:27;11.50;14.00
429;DHT22;201;48.758;9.290;2023-05-14T04:29:52;11.50;13.80
429;DHT22;201;48.758;9.290;2023-05-14T04:32:18;11.50;13.80
429;DHT22;201;48.758;9.290;2023-05-14T04:34:44;11.50;13.70
429;DHT22;201;48.758;9.290;2023-05-14T04:37:11;11.50;13.80
429;DHT22;201;48.758;9.290;2023-05-14T04:39:36;11.50;13.70
429;DHT22;201;48.758;9.290;2023-05-14T04:42:02;11.50;14.00
429;DHT22;201;48.758;9.290;2023-05-14T04:44:28;11.40;13.80
429;DHT22;201;48.758;9.290;2023-05-14T04:46:53;11.40;13.90
429;DHT22;201;48.758;9.290;2023-05-14T04:49:19;11.40;14.00
429;DHT22;201;48.758;9.290;2023-05-14T04:51:45;11.40;13.60
429;DHT22;201;48.758;9.290;2023-05-14T04:54:12;11.40;13.50
429;DHT22;201;48.758;9.290;2023-05-14T04:56:37;11.30;13.60
429;DHT22;201;48.758;9.290;2023-05-14T04:59:03;11.20;13.70
429;DHT22;201;48.758;9.290;2023-05-14T05:01:28;11.20;14.00
429;DHT22;201;48.758;9.290;2023-05-14T05:03:54;11.20;14.10
429;DHT22;201;48.758;9.290;2023-05-14T05:06:19;11.00;14.30
429;DHT22;201;48.758;9.290;2023-05-14T05:08:45;11.00;15.30
429;DHT22;201;48.758;9.290;2023-05-14T05:11:10;10.90;15.60
429;DHT22;201;48.758;9.290;2023-05-14T05:13:36;10.90;16.10
429;DHT22;201;48.758;9.290;2023-05-14T05:16:01;11.00;15.80
429;DHT22;201;48.758;9.290;2023-05-14T05:18:27;11.00;15.60
429;DHT22;201;48.758;9.290;2023-05-14T05:20:52;11.10;15.40
429;DHT22;201;48.758;9.290;2023-05-14T05:23:18;11.00;15.80
429;DHT22;201;48.758;9.290;2023-05-14T05:25:44;10.90;15.90
429;DHT22;201;48.758;9.290;2023-05-14T05:28:09;10.90;16.10
429;DHT22;201;48.758;9.290;2023-05-14T05:30:35;10.90;16.40
429;DHT22;201;48.758;9.290;2023-05-14T05:33:01;11.10;16.30
429;DHT22;201;48.758;9.290;2023-05-14T05:35:26;11.20;16.00
429;DHT22;201;48.758;9.290;2023-05-14T05:37:52;11.20;15.80
429;DHT22;201;48.758;9.290;2023-05-14T05:40:17;11.30;15.00
429;DHT22;201;48.758;9.290;2023-05-14T05:42:43;11.30;14.80
429;DHT22;201;48.758;9.290;2023-05-14T05:45:09;11.30;14.80
429;DHT22;201;48.758;9.290;2023-05-14T05:47:34;11.30;14.80
429;DHT22;201;48.758;9.290;2023-05-14T05:50:00;11.40;14.00
429;DHT22;201;48.758;9.290;2023-05-14T05:52:26;11.30;13.70
429;DHT22;201;48.758;9.290;2023-05-14T05:54:51;11.30;13.50
429;DHT22;201;48.758;9.290;2023-05-14T05:57:17;11.30;13.60
429;DHT22;201;48.758;9.290;2023-05-14T05:59:42;11.30;13.60
429;DHT22;201;48.758;9.290;2023-05-14T06:02:08;11.40;13.50
429;DHT22;201;48.758;9.290;2023-05-14T06:04:33;11.50;13.30
429;DHT22;201;48.758;9.290;2023-05-14T06:06:59;11.60;13.30
429;DHT22;201;48.758;9.290;2023-05-14T06:09:24;11.60;13.10
429;DHT22;201;48.758;9.290;2023-05-14T06:11:50;11.70;12.50
429;DHT22;201;48.758;9.290;2023-05-14T06:14:15;11.70;12.70
429;DHT22;201;48.758;9.290;2023-05-14T06:16:41;11.80;12.80
429;DHT22;201;48.758;9.290;2023-05-14T06:19:06;11.90;12.50
429;DHT22;201;48.758;9.290;2023-05-14T06:21:32;12.00;12.00
429;DHT22;201;48.758;9.290;2023-05-14T06:23:58;12.10;12.10
429;DHT22;201;48.758;9.290;2023-05-14T06:26:23;12.10;11.10
429;DHT22;201;48.758;9.290;2023-05-14T06:28:49;12.30;11.20
429;DHT22;201;48.758;9.290;2023-05-14T06:31:14;12.10;11.10
429;DHT22;201;48.758;9.290;2023-05-14T06:33:40;12.20;11.20
429;DHT22;201;48.758;9.290;2023-05-14T06:36:06;12.40;10.70
429;DHT22;201;48.758;9.290;2023-05-14T06:38:32;12.50;10.00
429;DHT22;201;48.758;9.290;2023-05-14T06:40:58;12.60;9.70
429;DHT22;201;48.758;9.290;2023-05-14T06:43:23;12.70;8.80
429;DHT22;201;48.758;9.290;2023-05-14T06:45:50;12.70;8.10
429;DHT22;201;48.758;9.290;2023-05-14T06:48:16;12.90;7.90
429;DHT22;201;48.758;9.290;2023-05-14T06:50:43;12.90;7.90
429;DHT22;201;48.758;9.290;2023-05-14T06:53:09;12.90;7.70
429;DHT22;201;48.758;9.290;2023-05-14T06:55:34;13.00;7.60
429;DHT22;201;48.758;9.290;2023-05-14T06:58:00;13.00;6.90
429;DHT22;201;48.758;9.290;2023-05-14T07:00:26;13.10;6.70
429;DHT22;201;48.758;9.290;2023-05-14T07:02:51;13.30;7.00
429;DHT22;201;48.758;9.290;2023-05-14T07:05:17;13.40;6.20
429;DHT22;201;48.758;9.290;2023-05-14T07:07:43;13.50;5.50
429;DHT22;201;48.758;9.290;2023-05-14T07:10:09;13.50;5.20
429;DHT22;201;48.758;9.290;2023-05-14T07:12:35;13.70;5.10
429;DHT22;201;48.758;9.290;2023-05-14T07:15:00;13.90;4.50
429;DHT22;201;48.758;9.290;2023-05-14T07:17:26;13.90;3.60
429;DHT22;201;48.758;9.290;2023-05-14T07:19:51;14.20;3.80
429;DHT22;201;48.758;9.290;2023-05-14T07:22:17;14.10;3.10
429;DHT22;201;48.758;9.290;2023-05-14T07:24:42;14.10;3.00
429;DHT22;201;48.758;9.290;2023-05-14T07:27:08;14.00;3.70
429;DHT22;201;48.758;9.290;2023-05-14T07:29:33;14.10;3.70
429;DHT22;201;48.758;9.290;2023-05-14T07:32:00;14.30;2.90
429;DHT22;201;48.758;9.290;2023-05-14T07:34:25;14.20;2.70
429;DHT22;201;48.758;9.290;2023-05-14T07:36:51;14.20;3.60
429;DHT22;201;48.758;9.290;2023-05-14T07:39:17;14.40;3.10
429;DHT22;201;48.758;9.290;2023-05-14T07:41:42;14.60;1.90
429;DHT22;201;48.758;9.290;2023-05-14T07:44:08;14.80;1.90
429;DHT22;201;48.758;9.290;2023-05-14T07:46:34;14.90;1.30
429;DHT22;201;48.758;9.290;2023-05-14T07:49:00;15.00;1.70
429;DHT22;201;48.758;9.290;2023-05-14T07:51:25;14.90;1.00
429;DHT22;201;48.758;9.290;2023-05-14T07:53:53;14.90;1.00
429;DHT22;201;48.758;9.290;2023-05-14T07:56:20;15.10;1.00
429;DHT22;201;48.758;9.290;2023-05-14T07:58:46;15.40;1.00
429;DHT22;201;48.758;9.290;2023-05-14T08:01:12;15.40;1.00
429;DHT22;201;48.758;9.290;2023-05-14T08:03:37;15.40;1.00
429;DHT22;201;48.758;9.290;2023-05-14T08:06:03;15.90;1.00
429;DHT22;201;48.758;9.290;2023-05-14T08:08:29;16.50;1.00
429;DHT22;201;48.758;9.290;2023-05-14T08:10:54;16.70;1.00
429;DHT22;201;48.758;9.290;2023-05-14T08:13:20;17.20;1.00
429;DHT22;201;48.758;9.290;2023-05-14T08:15:46;17.80;1.00
429;DHT22;201;48.758;9.290;2023-05-14T08:18:11;19.10;1.00
429;DHT22;201;48.758;9.290;2023-05-14T08:20:37;20.70;1.00
429;DHT22;201;48.758;9.290;2023-05-14T08:23:02;22.00;1.00
429;DHT22;201;48.758;9.290;2023-05-14T08:25:28;23.30;1.00
429;DHT22;201;48.758;9.290;2023-05-14T08:27:53;24.50;1.00
429;DHT22;201;48.758;9.290;2023-05-14T08:30:19;25.00;1.00
429;DHT22;201;48.758;9.290;2023-05-14T08:32:46;24.70;1.00
429;DHT22;201;48.758;9.290;2023-05-14T08:35:11;24.50;1.00
429;DHT22;201;48.758;9.290;2023-05-14T08:37:37;24.30;1.00
429;DHT22;201;48.758;9.290;2023-05-14T08:40:02;22.90;1.00
429;DHT22;201;48.758;9.290;2023-05-14T08:42:28;22.20;1.00
429;DHT22;201;48.758;9.290;2023-05-14T08:45:00;20.50;1.00
429;DHT22;201;48.758;9.290;2023-05-14T08:47:29;19.60;1.00
429;DHT22;201;48.758;9.290;2023-05-14T08:50:03;18.70;1.00
429;DHT22;201;48.758;9.290;2023-05-14T08:52:29;17.30;1.00
429;DHT22;201;48.758;9.290;2023-05-14T08:54:55;16.80;1.00
429;DHT22;201;48.758;9.290;2023-05-14T08:57:22;16.20;1.00
429;DHT22;201;48.758;9.290;2023-05-14T08:59:50;16.50;1.00
429;DHT22;201;48.758;9.290;2023-05-14T09:02:16;16.90;1.00
429;DHT22;201;48.758;9.290;2023-05-14T09:04:44;17.80;1.00
429;DHT22;201;48.758;9.290;2023-05-14T09:07:10;18.50;1.00
429;DHT22;201;48.758;9.290;2023-05-14T09:09:36;18.70;1.00
429;DHT22;201;48.758;9.290;2023-05-14T09:12:02;18.50;1.00
429;DHT22;201;48.758;9.290;2023-05-14T09:14:28;18.50;1.00
429;DHT22;201;48.758;9.290;2023-05-14T09:16:53;19.10;1.00
429;DHT22;201;48.758;9.290;2023-05-14T09:19:19;19.60;1.00
429;DHT22;201;48.758;9.290;2023-05-14T09:21:47;20.20;1.00
429;DHT22;201;48.758;9.290;2023-05-14T09:24:23;23.10;1.00
429;DHT22;201;48.758;9.290;2023-05-14T09:26:50;24.90;1.00
429;DHT22;201;48.758;9.290;2023-05-14T09:29:16;24.80;1.00
429;DHT22;201;48.758;9.290;2023-05-14T09:31:42;26.90;1.00
429;DHT22;201;48.758;9.290;2023-05-14T09:34:07;27.40;1.00
429;DHT22;201;48.758;9.290;2023-05-14T09:36:33;27.80;1.00
429;DHT22;201;48.758;9.290;2023-05-14T09:38:59;27.60;1.00
429;DHT22;201;48.758;9.290;2023-05-14T09:41:27;27.40;1.00
429;DHT22;201;48.758;9.290;2023-05-14T09:43:53;26.30;1.00
429;DHT22;201;48.758;9.290;2023-05-14T09:46:18;25.70;1.00
429;DHT22;201;48.758;9.290;2023-05-14T09:48:45;25.00;1.00
429;DHT22;201;48.758;9.290;2023-05-14T09:51:10;24.10;1.00
429;DHT22;201;48.758;9.290;2023-05-14T09:53:36;24.20;1.00
429;DHT22;201;48.758;9.290;2023-05-14T09:56:01;26.10;1.00
429;DHT22;201;48.758;9.290;2023-05-14T09:58:27;26.40;1.00
429;DHT22;201;48.758;9.290;2023-05-14T10:00:54;25.80;1.00
429;DHT22;201;48.758;9.290;2023-05-14T10:03:22;25.00;1.00
429;DHT22;201;48.758;9.290;2023-05-14T10:05:49;24.00;1.00
429;DHT22;201;48.758;9.290;2023-05-14T10:08:23;21.90;1.00
429;DHT22;201;48.758;9.290;2023-05-14T10:10:53;20.00;1.00
429;DHT22;201;48.758;9.290;2023-05-14T10:13:23;18.90;1.00
429;DHT22;201;48.758;9.290;2023-05-14T10:16:00;18.10;1.00
429;DHT22;201;48.758;9.290;2023-05-14T10:18:30;18.00;1.00
429;DHT22;201;48.758;9.290;2023-05-14T10:21:03;17.60;1.00
429;DHT22;201;48.758;9.290;2023-05-14T10:23:29;17.20;1.00
429;DHT22;201;48.758;9.290;2023-05-14T10:25:56;17.10;1.00
429;DHT22;201;48.758;9.290;2023-05-14T10:28:22;17.60;1.00
429;DHT22;201;48.758;9.290;2023-05-14T10:30:49;17.70;1.00
429;DHT22;201;48.758;9.290;2023-05-14T10:33:15;19.00;1.00
429;DHT22;201;48.758;9.290;2023-05-14T10:35:55;21.30;1.00
429;DHT22;201;48.758;9.290;2023-05-14T10:38:24;24.00;1.00
429;DHT22;201;48.758;9.290;2023-05-14T10:40:54;25.00;1.00
429;DHT22;201;48.758;9.290;2023-05-14T10:43:20;23.90;1.00
429;DHT22;201;48.758;9.290;2023-05-14T10:45:47;22.90;1.00
429;DHT22;201;48.758;9.290;2023-05-14T10:48:12;21.00;1.00
429;DHT22;201;48.758;9.290;2023-05-14T10:50:38;20.30;1.00
429;DHT22;201;48.758;9.290;2023-05-14T10:53:03;19.90;1.00
429;DHT22;201;48.758;9.290;2023-05-14T10:55:30;20.20;1.00
429;DHT22;201;48.758;9.290;2023-05-14T10:57:57;20.40;1.00
429;DHT22;201;48.758;9.290;2023-05-14T11:00:24;20.90;1.00
429;DHT22;201;48.758;9.290;2023-05-14T11:02:55;21.40;1.00
429;DHT22;201;48.758;9.290;2023-05-14T11:05:21;22.00;1.00
429;DHT22;201;48.758;9.290;2023-05-14T11:07:48;22.40;1.00
429;DHT22;201;48.758;9.290;2023-05-14T11:10:16;22.20;1.00
429;DHT22;201;48.758;9.290;2023-05-14T11:12:47;22.30;1.00
429;DHT22;201;48.758;9.290;2023-05-14T11:15:21;22.50;1.00
429;DHT22;201;48.758;9.290;2023-05-14T11:17:47;21.50;1.00
429;DHT22;201;48.758;9.290;2023-05-14T11:20:14;20.30;1.00
429;DHT22;201;48.758;9.290;2023-05-14T11:22:41;19.20;1.00
429;DHT22;201;48.758;9.290;2023-05-14T11:25:08;18.80;1.00
429;DHT22;201;48.758;9.290;2023-05-14T11:27:35;19.00;1.00
429;DHT22;201;48.758;9.290;2023-05-14T11:30:02;19.20;1.00
429;DHT22;201;48.758;9.290;2023-05-14T11:32:28;19.30;1.00
429;DHT22;201;48.758;9.290;2023-05-14T11:34:55;19.30;1.00
429;DHT22;201;48.758;9.290;2023-05-14T11:37:21;19.60;1.00
429;DHT22;201;48.758;9.290;2023-05-14T11:39:58;20.30;1.00
429;DHT22;201;48.758;9.290;2023-05-14T11:42:24;21.00;1.00
429;DHT22;201;48.758;9.290;2023-05-14T11:44:50;21.50;1.00
429;DHT22;201;48.758;9.290;2023-05-14T11:47:18;22.20;1.00
429;DHT22;201;48.758;9.290;2023-05-14T11:49:44;22.40;1.00
429;DHT22;201;48.758;9.290;2023-05-14T11:52:11;22.50;1.00
429;DHT22;201;48.758;9.290;2023-05-14T11:54:38;22.20;1.00
429;DHT22;201;48.758;9.290;2023-05-14T11:57:10;21.60;1.00
429;DHT22;201;48.758;9.290;2023-05-14T11:59:36;21.00;1.00
429;DHT22;201;48.758;9.290;2023-05-14T12:02:02;20.90;1.00
429;DHT22;201;48.758;9.290;2023-05-14T12:04:29;20.90;1.00
429;DHT22;201;48.758;9.290;2023-05-14T12:06:57;21.00;1.00
429;DHT22;201;48.758;9.290;2023-05-14T12:09:23;21.50;1.00
429;DHT22;201;48.758;9.290;2023-05-14T12:11:49;21.70;1.00
429;DHT22;201;48.758;9.290;2023-05-14T12:14:20;21.60;1.00
429;DHT22;201;48.758;9.290;2023-05-14T12:16:47;21.40;1.00
429;DHT22;201;48.758;9.290;2023-05-14T12:19:18;21.30;1.00
429;DHT22;201;48.758;9.290;2023-05-14T12:21:47;20.70;1.00
429;DHT22;201;48.758;9.290;2023-05-14T12:24:14;19.90;1.00
429;DHT22;201;48.758;9.290;2023-05-14T12:26:45;19.70;1.00
429;DHT22;201;48.758;9.290;2023-05-14T12:29:12;19.80;1.00
429;DHT22;201;48.758;9.290;2023-05-14T12:31:47;19.90;1.00
429;DHT22;201;48.758;9.290;2023-05-14T12:34:13;19.90;1.00
429;DHT22;201;48.758;9.290;2023-05-14T12:36:39;19.60;1.00
429;DHT22;201;48.758;9.290;2023-05-14T12:39:05;18.90;1.00
429;DHT22;201;48.758;9.290;2023-05-14T12:41:32;18.50;1.00
429;DHT22;201;48.758;9.290;2023-05-14T12:43:58;18.30;1.00
429;DHT22;201;48.758;9.290;2023-05-14T12:46:25;18.10;1.00
429;DHT22;201;48.758;9.290;2023-05-14T12:48:51;18.20;1.00
429;DHT22;201;48.758;9.290;2023-05-14T12:51:16;18.10;1.00
429;DHT22;201;48.758;9.290;2023-05-14T12:53:42;18.00;1.00
429;DHT22;201;48.758;9.290;2023-05-14T12:56:08;17.90;1.00
429;DHT22;201;48.758;9.290;2023-05-14T12:58:33;17.70;1.00
429;DHT22;201;48.758;9.290;2023-05-14T13:00:59;17.70;1.00
429;DHT22;201;48.758;9.290;2023-05-14T13:03:24;17.80;1.00
429;DHT22;201;48.758;9.290;2023-05-14T13:05:51;17.90;1.00
429;DHT22;201;48.758;9.290;2023-05-14T13:08:17;18.20;1.00
429;DHT22;201;48.758;9.290;2023-05-14T13:10:43;18.40;1.00
429;DHT22;201;48.758;9.290;2023-05-14T13:13:09;18.70;1.00
429;DHT22;201;48.758;9.290;2023-05-14T13:15:36;19.00;1.00
429;DHT22;201;48.758;9.290;2023-05-14T13:18:01;18.90;1.00
429;DHT22;201;48.758;9.290;2023-05-14T13:20:27;18.90;1.00
429;DHT22;201;48.758;9.290;2023-05-14T13:22:53;19.00;1.00
429;DHT22;201;48.758;9.290;2023-05-14T13:25:19;19.00;1.00
429;DHT22;201;48.758;9.290;2023-05-14T13:27:44;19.00;1.00
429;DHT22;201;48.758;9.290;2023-05-14T13:30:10;18.70;1.00
429;DHT22;201;48.758;9.290;2023-05-14T13:32:36;18.30;1.00
429;DHT22;201;48.758;9.290;2023-05-14T13:35:02;17.90;1.00
429;DHT22;201;48.758;9.290;2023-05-14T13:37:27;17.90;1.00
429;DHT22;201;48.758;9.290;2023-05-14T13:39:52;18.10;1.00
429;DHT22;201;48.758;9.290;2023-05-14T13:42:18;18.30;1.00
429;DHT22;201;48.758;9.290;2023-05-14T13:44:43;18.60;1.00
429;DHT22;201;48.758;9.290;2023-05-14T13:47:09;18.50;1.00
429;DHT22;201;48.758;9.290;2023-05-14T13:49:35;18.60;1.00
429;DHT22;201;48.758;9.290;2023-05-14T13:52:00;18.80;1.00
429;DHT22;201;48.758;9.290;2023-05-14T13:54:26;19.00;1.00
429;DHT22;201;48.758;9.290;2023-05-14T13:56:51;19.00;1.00
429;DHT22;201;48.758;9.290;2023-05-14T13:59:17;18.40;1.00
429;DHT22;201;48.758;9.290;2023-05-14T14:01:42;18.00;1.00
429;DHT22;201;48.758;9.290;2023-05-14T14:04:09;17.80;1.00
429;DHT22;201;48.758;9.290;2023-05-14T14:06:35;18.10;1.00
429;DHT22;201;48.758;9.290;2023-05-14T14:09:00;18.40;1.00
429;DHT22;201;48.758;9.290;2023-05-14T14:11:26;18.40;1.00
429;DHT22;201;48.758;9.290;2023-05-14T14:13:52;18.40;1.00
429;DHT22;201;48.758;9.290;2023-05-14T14:16:18;18.60;1.00
429;DHT22;201;48.758;9.290;2023-05-14T14:18:43;18.80;1.00
429;DHT22;201;48.758;9.290;2023-05-14T14:21:09;18.90;1.00
429;DHT22;201;48.758;9.290;2023-05-14T14:23:35;19.10;1.00
429;DHT22;201;48.758;9.290;2023-05-14T14:26:00;19.30;1.00
429;DHT22;201;48.758;9.290;2023-05-14T14:28:26;19.10;1.00
429;DHT22;201;48.758;9.290;2023-05-14T14:30:51;18.60;1.00
429;DHT22;201;48.758;9.290;2023-05-14T14:33:17;18.50;1.00
429;DHT22;201;48.758;9.290;2023-05-14T14:35:42;18.50;1.00
429;DHT22;201;48.758;9.290;2023-05-14T14:38:08;18.40;1.00
429;DHT22;201;48.758;9.290;2023-05-14T14:40:34;18.10;1.00
429;DHT22;201;48.758;9.290;2023-05-14T14:42:59;17.90;1.00
429;DHT22;201;48.758;9.290;2023-05-14T14:45:26;17.80;1.00
429;DHT22;201;48.758;9.290;2023-05-14T14:48:25;17.70;1.00
429;DHT22;201;48.758;9.290;2023-05-14T14:50:51;17.60;1.00
429;DHT22;201;48.758;9.290;2023-05-14T14:53:21;17.40;1.00
429;DHT22;201;48.758;9.290;2023-05-14T14:55:50;17.40;1.00
429;DHT22;201;48.758;9.290;2023-05-14T14:58:17;17.30;1.00
429;DHT22;201;48.758;9.290;2023-05-14T15:00:43;17.20;1.00
429;DHT22;201;48.758;9.290;2023-05-14T15:03:09;17.10;1.00
429;DHT22;201;48.758;9.290;2023-05-14T15:05:35;17.20;1.00
429;DHT22;201;48.758;9.290;2023-05-14T15:08:01;17.30;1.00
429;DHT22;201;48.758;9.290;2023-05-14T15:10:27;17.20;1.00
429;DHT22;201;48.758;9.290;2023-05-14T15:12:57;17.10;1.00
429;DHT22;201;48.758;9.290;2023-05-14T15:15:23;17.20;1.00
429;DHT22;201;48.758;9.290;2023-05-14T15:17:49;17.30;1.00
429;DHT22;201;48.758;9.290;2023-05-14T15:20:15;17.40;1.00
429;DHT22;201;48.758;9.290;2023-05-14T15:22:41;17.50;1.00
429;DHT22;201;48.758;9.290;2023-05-14T15:25:07;17.50;1.00
429;DHT22;201;48.758;9.290;2023-05-14T15:27:33;17.20;1.00
429;DHT22;201;48.758;9.290;2023-05-14T15:29:59;17.10;1.00
429;DHT22;201;48.758;9.290;2023-05-14T15:32:24;17.00;1.00
429;DHT22;201;48.758;9.290;2023-05-14T15:34:51;17.10;1.00
429;DHT22;201;48.758;9.290;2023-05-14T15:37:16;16.90;1.00
429;DHT22;201;48.758;9.290;2023-05-14T15:39:42;16.90;1.00
429;DHT22;201;48.758;9.290;2023-05-14T15:42:08;16.90;1.00
429;DHT22;201;48.758;9.290;2023-05-14T15:44:35;17.10;1.00
429;DHT22;201;48.758;9.290;2023-05-14T15:47:01;17.10;1.00
429;DHT22;201;48.758;9.290;2023-05-14T15:49:26;16.90;1.00
429;DHT22;201;48.758;9.290;2023-05-14T15:51:52;16.70;1.00
429;DHT22;201;48.758;9.290;2023-05-14T15:54:17;16.60;1.00
429;DHT22;201;48.758;9.290;2023-05-14T15:56:43;16.60;1.00
429;DHT22;201;48.758;9.290;2023-05-14T15:59:08;16.70;1.00
429;DHT22;201;48.758;9.290;2023-05-14T16:01:34;16.80;1.00
429;DHT22;201;48.758;9.290;2023-05-14T16:03:59;16.80;1.00
429;DHT22;201;48.758;9.290;2023-05-14T16:06:25;17.00;1.00
429;DHT22;201;48.758;9.290;2023-05-14T16:08:51;17.10;1.00
429;DHT22;201;48.758;9.290;2023-05-14T16:11:17;17.20;1.00
429;DHT22;201;48.758;9.290;2023-05-14T16:13:42;17.40;1.00
429;DHT22;201;48.758;9.290;2023-05-14T16:16:08;17.60;1.00
429;DHT22;201;48.758;9.290;2023-05-14T16:18:33;17.60;1.00
429;DHT22;201;48.758;9.290;2023-05-14T16:20:59;17.60;1.00
429;DHT22;201;48.758;9.290;2023-05-14T16:23:26;17.50;1.00
429;DHT22;201;48.758;9.290;2023-05-14T16:25:51;17.60;1.00
429;DHT22;201;48.758;9.290;2023-05-14T16:28:17;17.50;1.00
429;DHT22;201;48.758;9.290;2023-05-14T16:30:42;17.50;1.00
429;DHT22;201;48.758;9.290;2023-05-14T16:33:08;17.40;1.00
429;DHT22;201;48.758;9.290;2023-05-14T16:35:33;17.50;1.00
429;DHT22;201;48.758;9.290;2023-05-14T16:37:59;17.40;1.00
429;DHT22;201;48.758;9.290;2023-05-14T16:40:24;17.50;1.00